sensor_id;sensor_type;location;lat;lon;timestamp;pressure;altitude;pressure_sealevel;temperature;humidity
24620;BME280;12763;55.802;37.404;2023-04-02T00:07:59;98832.16;;;10.15;100.00
24620;BME280;12763;55.802;37.404;2023-04-02T00:10:39;98834.63;;;9.87;100.00
24620;BME280;12763;55.802;37.404;2023-04-02T00:15:38;98836.41;;;10.11;100.00
24620;BME280;12763;55.802;37.404;2023-04-02T00:18:05;98849.84;;;9.89;100.00
24620;BME280;12763;55.802;37.404;2023-04-02T00:20:35;98843.88;;;9.92;100.00
24620;BME280;12763;55.802;37.404;2023-04-02T00:23:04;98835.88;;;10.02;100.00
24620;BME280;12763;55.802;37.404;2023-04-02T00:25:34;98843.34;;;10.02;100.00
24620;BME280;12763;55.802;37.404;2023-04-02T00:28:02;98849.91;;;10.01;100.00
24620;BME280;12763;55.802;37.404;2023-04-02T00:30:29;98846.03;;;9.90;100.00
24620;BME280;12763;55.802;37.404;2023-04-02T00:32:55;98843.13;;;9.85;100.00
24620;BME280;12763;55.802;37.404;2023-04-02T00:35:26;98853.31;;;9.85;100.00
24620;BME280;12763;55.802;37.404;2023-04-02T00:37:53;98860.41;;;9.92;100.00
24620;BME280;12763;55.802;37.404;2023-04-02T00:40:27;98863.88;;;9.88;100.00
24620;BME280;12763;55.802;37.404;2023-04-02T00:42:57;98860.50;;;9.68;100.00
24620;BME280;12763;55.802;37.404;2023-04-02T00:45:24;98849.38;;;9.92;100.00
24620;BME280;12763;55.802;37.404;2023-04-02T00:47:51;98862.84;;;10.00;100.00
24620;BME280;12763;55.802;37.404;2023-04-02T00:50:29;98871.38;;;9.99;100.00
24620;BME280;12763;55.802;37.404;2023-04-02T00:52:56;98866.53;;;9.94;100.00
24620;BME280;12763;55.802;37.404;2023-04-02T00:55:36;98870.28;;;9.82;100.00
24620;BME280;12763;55.802;37.404;2023-04-02T00:58:11;98861.69;;;9.54;100.00
24620;BME280;12763;55.802;37.404;2023-04-02T01:00:48;98862.03;;;9.64;100.00
24620;BME280;12763;55.802;37.404;2023-04-02T01:05:58;98861.41;;;9.80;100.00
24620;BME280;12763;55.802;37.404;2023-04-02T01:14:39;98870.59;;;9.74;100.00
24620;BME280;12763;55.802;37.404;2023-04-02T01:17:29;98872.03;;;9.94;100.00
24620;BME280;12763;55.802;37.404;2023-04-02T01:25:19;98869.22;;;9.65;100.00
24620;BME280;12763;55.802;37.404;2023-04-02T01:28:00;98856.81;;;9.92;100.00
24620;BME280;12763;55.802;37.404;2023-04-02T01:30:30;98857.44;;;9.94;100.00
24620;BME280;12763;55.802;37.404;2023-04-02T01:32:58;98871.59;;;9.79;100.00
24620;BME280;12763;55.802;37.404;2023-04-02T01:35:25;98856.66;;;9.87;100.00
24620;BME280;12763;55.802;37.404;2023-04-02T01:38:09;98868.81;;;9.97;100.00
24620;BME280;12763;55.802;37.404;2023-04-02T01:41:02;98859.41;;;10.05;100.00
24620;BME280;12763;55.802;37.404;2023-04-02T01:46:22;98867.28;;;9.83;100.00
24620;BME280;12763;55.802;37.404;2023-04-02T01:48:50;98860.19;;;9.76;100.00
24620;BME280;12763;55.802;37.404;2023-04-02T01:51:26;98857.91;;;9.91;100.00
24620;BME280;12763;55.802;37.404;2023-04-02T01:53:53;98862.78;;;10.07;100.00
24620;BME280;12763;55.802;37.404;2023-04-02T01:56:20;98864.31;;;10.03;100.00
24620;BME280;12763;55.802;37.404;2023-04-02T01:58:48;98855.09;;;10.09;100.00
24620;BME280;12763;55.802;37.404;2023-04-02T02:01:20;98865.59;;;10.00;100.00
24620;BME280;12763;55.802;37.404;2023-04-02T02:03:51;98859.03;;;10.01;100.00
24620;BME280;12763;55.802;37.404;2023-04-02T02:06:18;98860.22;;;10.05;100.00
24620;BME280;12763;55.802;37.404;2023-04-02T02:09:04;98860.16;;;10.12;100.00
24620;BME280;12763;55.802;37.404;2023-04-02T02:11:32;98864.22;;;10.10;100.00
24620;BME280;12763;55.802;37.404;2023-04-02T02:14:00;98863.41;;;9.91;100.00
24620;BME280;12763;55.802;37.404;2023-04-02T02:16:28;98869.22;;;10.19;100.00
24620;BME280;12763;55.802;37.404;2023-04-02T02:19:03;98868.66;;;10.29;100.00
24620;BME280;12763;55.802;37.404;2023-04-02T02:21:42;98879.63;;;10.35;100.00
24620;BME280;12763;55.802;37.404;2023-04-02T02:24:18;98863.28;;;10.34;100.00
24620;BME280;12763;55.802;37.404;2023-04-02T02:26:47;98869.00;;;10.50;100.00
24620;BME280;12763;55.802;37.404;2023-04-02T02:29:17;98872.50;;;10.28;100.00
24620;BME280;12763;55.802;37.404;2023-04-02T02:31:46;98865.97;;;10.22;100.00
24620;BME280;12763;55.802;37.404;2023-04-02T02:34:27;98873.94;;;10.30;100.00
24620;BME280;12763;55.802;37.404;2023-04-02T02:37:01;98865.63;;;10.48;100.00
24620;BME280;12763;55.802;37.404;2023-04-02T02:39:36;98872.09;;;10.42;100.00
24620;BME280;12763;55.802;37.404;2023-04-02T02:42:17;98869.47;;;10.47;100.00
24620;BME280;12763;55.802;37.404;2023-04-02T02:44:48;98878.00;;;10.10;100.00
24620;BME280;12763;55.802;37.404;2023-04-02T02:47:33;98865.63;;;10.48;100.00
24620;BME280;12763;55.802;37.404;2023-04-02T02:50:05;98872.00;;;10.60;100.00
24620;BME280;12763;55.802;37.404;2023-04-02T02:52:37;98870.47;;;10.65;100.00
24620;BME280;12763;55.802;37.404;2023-04-02T02:55:14;98878.50;;;10.54;100.00
24620;BME280;12763;55.802;37.404;2023-04-02T02:57:57;98872.19;;;10.66;100.00
24620;BME280;12763;55.802;37.404;2023-04-02T03:00:26;98880.28;;;10.60;100.00
24620;BME280;12763;55.802;37.404;2023-04-02T03:02:55;98881.72;;;10.51;100.00
24620;BME280;12763;55.802;37.404;2023-04-02T03:05:26;98876.28;;;10.45;100.00
24620;BME280;12763;55.802;37.404;2023-04-02T03:07:57;98880.28;;;10.31;100.00
24620;BME280;12763;55.802;37.404;2023-04-02T03:10:55;98882.66;;;10.45;100.00
24620;BME280;12763;55.802;37.404;2023-04-02T03:13:33;98881.53;;;10.65;100.00
24620;BME280;12763;55.802;37.404;2023-04-02T03:16:16;98880.41;;;10.54;100.00
24620;BME280;12763;55.802;37.404;2023-04-02T03:18:50;98877.31;;;10.62;100.00
24620;BME280;12763;55.802;37.404;2023-04-02T03:23:59;98884.28;;;10.65;100.00
24620;BME280;12763;55.802;37.404;2023-04-02T03:26:31;98889.94;;;10.70;100.00
24620;BME280;12763;55.802;37.404;2023-04-02T03:29:12;98888.91;;;10.82;100.00
24620;BME280;12763;55.802;37.404;2023-04-02T03:31:49;98905.09;;;10.79;100.00
24620;BME280;12763;55.802;37.404;2023-04-02T03:34:25;98900.75;;;10.71;100.00
24620;BME280;12763;55.802;37.404;2023-04-02T03:37:04;98905.88;;;10.68;100.00
24620;BME280;12763;55.802;37.404;2023-04-02T03:42:34;98896.22;;;10.77;100.00
24620;BME280;12763;55.802;37.404;2023-04-02T03:45:06;98904.38;;;10.53;100.00
24620;BME280;12763;55.802;37.404;2023-04-02T03:47:46;98904.78;;;10.57;100.00
24620;BME280;12763;55.802;37.404;2023-04-02T03:50:39;98895.91;;;10.67;100.00
24620;BME280;12763;55.802;37.404;2023-04-02T03:53:10;98896.09;;;10.24;100.00
24620;BME280;12763;55.802;37.404;2023-04-02T03:55:39;98902.47;;;10.24;100.00
24620;BME280;12763;55.802;37.404;2023-04-02T03:58:22;98894.34;;;10.59;100.00
24620;BME280;12763;55.802;37.404;2023-04-02T04:00:59;98891.03;;;10.69;100.00
24620;BME280;12763;55.802;37.404;2023-04-02T04:03:39;98895.84;;;10.43;100.00
24620;BME280;12763;55.802;37.404;2023-04-02T04:08:53;98903.13;;;10.68;100.00
24620;BME280;12763;55.802;37.404;2023-04-02T04:11:25;98887.03;;;10.65;100.00
24620;BME280;12763;55.802;37.404;2023-04-02T04:14:00;98894.72;;;10.63;100.00
24620;BME280;12763;55.802;37.404;2023-04-02T04:16:31;98881.78;;;10.75;100.00
24620;BME280;12763;55.802;37.404;2023-04-02T04:19:20;98887.59;;;10.85;100.00
24620;BME280;12763;55.802;37.404;2023-04-02T04:21:50;98901.34;;;10.43;100.00
24620;BME280;12763;55.802;37.404;2023-04-02T04:24:23;98912.84;;;10.22;100.00
24620;BME280;12763;55.802;37.404;2023-04-02T04:32:35;98924.97;;;10.21;100.00
24620;BME280;12763;55.802;37.404;2023-04-02T04:37:47;98925.19;;;10.38;100.00
24620;BME280;12763;55.802;37.404;2023-04-02T04:40:22;98925.28;;;10.13;100.00
24620;BME280;12763;55.802;37.404;2023-04-02T04:42:54;98923.88;;;10.22;100.00
24620;BME280;12763;55.802;37.404;2023-04-02T04:45:35;98927.88;;;10.26;100.00
24620;BME280;12763;55.802;37.404;2023-04-02T04:51:08;98925.41;;;10.54;100.00
24620;BME280;12763;55.802;37.404;2023-04-02T04:53:45;98931.91;;;10.42;100.00
24620;BME280;12763;55.802;37.404;2023-04-02T04:56:15;98935.38;;;10.37;100.00
24620;BME280;12763;55.802;37.404;2023-04-02T04:58:54;98929.59;;;10.57;100.00
24620;BME280;12763;55.802;37.404;2023-04-02T05:01:47;98934.53;;;10.67;100.00
24620;BME280;12763;55.802;37.404;2023-04-02T05:04:21;98925.75;;;10.58;100.00
24620;BME280;12763;55.802;37.404;2023-04-02T05:06:59;98927.69;;;10.57;100.00
24620;BME280;12763;55.802;37.404;2023-04-02T05:09:41;98930.72;;;10.68;100.00
24620;BME280;12763;55.802;37.404;2023-04-02T05:14:43;98937.94;;;10.69;100.00
24620;BME280;12763;55.802;37.404;2023-04-02T05:17:35;98934.53;;;10.37;100.00
24620;BME280;12763;55.802;37.404;2023-04-02T05:22:44;98944.19;;;10.46;100.00
24620;BME280;12763;55.802;37.404;2023-04-02T05:25:24;98940.88;;;10.37;100.00
24620;BME280;12763;55.802;37.404;2023-04-02T05:33:05;98947.28;;;10.49;100.00
24620;BME280;12763;55.802;37.404;2023-04-02T05:35:43;98957.41;;;10.55;100.00
24620;BME280;12763;55.802;37.404;2023-04-02T05:38:19;98949.84;;;10.81;100.00
24620;BME280;12763;55.802;37.404;2023-04-02T05:40:47;98951.19;;;10.90;100.00
24620;BME280;12763;55.802;37.404;2023-04-02T05:43:17;98952.97;;;10.84;100.00
24620;BME280;12763;55.802;37.404;2023-04-02T05:45:51;98952.19;;;10.95;100.00
24620;BME280;12763;55.802;37.404;2023-04-02T05:48:21;98954.63;;;10.55;100.00
24620;BME280;12763;55.802;37.404;2023-04-02T05:50:53;98962.53;;;10.70;100.00
24620;BME280;12763;55.802;37.404;2023-04-02T05:58:45;98948.94;;;10.98;100.00
24620;BME280;12763;55.802;37.404;2023-04-02T06:04:41;98954.25;;;11.11;100.00
24620;BME280;12763;55.802;37.404;2023-04-02T06:12:20;98958.69;;;11.01;100.00
24620;BME280;12763;55.802;37.404;2023-04-02T06:14:48;98962.66;;;11.16;100.00
24620;BME280;12763;55.802;37.404;2023-04-02T06:17:17;98968.47;;;11.27;100.00
24620;BME280;12763;55.802;37.404;2023-04-02T06:19:44;98962.72;;;11.28;100.00
24620;BME280;12763;55.802;37.404;2023-04-02T06:22:23;98975.00;;;11.02;100.00
24620;BME280;12763;55.802;37.404;2023-04-02T06:25:03;98953.91;;;10.78;100.00
24620;BME280;12763;55.802;37.404;2023-04-02T06:27:38;98963.91;;;11.20;100.00
24620;BME280;12763;55.802;37.404;2023-04-02T06:30:25;98953.00;;;11.37;100.00
24620;BME280;12763;55.802;37.404;2023-04-02T06:32:53;98943.63;;;11.38;100.00
24620;BME280;12763;55.802;37.404;2023-04-02T06:35:20;98950.78;;;11.16;100.00
24620;BME280;12763;55.802;37.404;2023-04-02T06:37:56;98953.69;;;11.21;100.00
24620;BME280;12763;55.802;37.404;2023-04-02T06:40:47;98953.97;;;11.43;100.00
24620;BME280;12763;55.802;37.404;2023-04-02T06:43:39;98952.72;;;11.27;100.00
24620;BME280;12763;55.802;37.404;2023-04-02T06:46:39;98946.69;;;11.07;100.00
24620;BME280;12763;55.802;37.404;2023-04-02T06:51:39;98954.69;;;11.50;100.00
24620;BME280;12763;55.802;37.404;2023-04-02T06:54:15;98948.00;;;11.81;100.00
24620;BME280;12763;55.802;37.404;2023-04-02T06:56:47;98957.63;;;11.90;100.00
24620;BME280;12763;55.802;37.404;2023-04-02T06:59:19;98954.72;;;11.96;100.00
24620;BME280;12763;55.802;37.404;2023-04-02T07:01:55;98962.59;;;11.46;100.00
24620;BME280;12763;55.802;37.404;2023-04-02T07:04:22;98960.66;;;11.35;100.00
24620;BME280;12763;55.802;37.404;2023-04-02T07:06:51;98966.25;;;11.05;100.00
24620;BME280;12763;55.802;37.404;2023-04-02T07:09:18;98961.19;;;11.02;100.00
24620;BME280;12763;55.802;37.404;2023-04-02T07:11:49;98971.59;;;10.89;100.00
24620;BME280;12763;55.802;37.404;2023-04-02T07:14:17;98971.13;;;10.62;100.00
24620;BME280;12763;55.802;37.404;2023-04-02T07:16:43;98976.56;;;10.98;100.00
24620;BME280;12763;55.802;37.404;2023-04-02T07:19:19;98974.47;;;10.94;100.00
24620;BME280;12763;55.802;37.404;2023-04-02T07:21:48;98975.09;;;10.66;100.00
24620;BME280;12763;55.802;37.404;2023-04-02T07:24:14;98981.50;;;10.48;100.00
24620;BME280;12763;55.802;37.404;2023-04-02T07:26:40;98987.53;;;10.39;100.00
24620;BME280;12763;55.802;37.404;2023-04-02T07:29:08;98991.44;;;10.49;100.00
24620;BME280;12763;55.802;37.404;2023-04-02T07:31:34;98996.91;;;10.38;100.00
24620;BME280;12763;55.802;37.404;2023-04-02T07:34:00;98992.81;;;10.58;100.00
24620;BME280;12763;55.802;37.404;2023-04-02T07:36:27;98996.72;;;10.51;100.00
24620;BME280;12763;55.802;37.404;2023-04-02T07:38:53;98995.88;;;10.50;100.00
24620;BME280;12763;55.802;37.404;2023-04-02T07:41:19;98995.34;;;10.42;100.00
24620;BME280;12763;55.802;37.404;2023-04-02T07:43:46;99001.22;;;10.63;100.00
24620;BME280;12763;55.802;37.404;2023-04-02T07:46:13;98994.78;;;10.70;100.00
24620;BME280;12763;55.802;37.404;2023-04-02T07:48:41;99000.44;;;10.75;100.00
24620;BME280;12763;55.802;37.404;2023-04-02T07:51:21;99004.09;;;10.57;100.00
24620;BME280;12763;55.802;37.404;2023-04-02T07:53:48;99012.06;;;10.95;100.00
24620;BME280;12763;55.802;37.404;2023-04-02T07:56:18;99008.38;;;11.01;100.00
24620;BME280;12763;55.802;37.404;2023-04-02T07:58:44;98998.75;;;11.33;100.00
24620;BME280;12763;55.802;37.404;2023-04-02T08:01:24;99003.44;;;11.44;100.00
24620;BME280;12763;55.802;37.404;2023-04-02T08:03:51;98998.34;;;11.18;100.00
24620;BME280;12763;55.802;37.404;2023-04-02T08:06:18;99001.97;;;11.30;100.00
24620;BME280;12763;55.802;37.404;2023-04-02T08:08:44;98993.50;;;11.43;100.00
24620;BME280;12763;55.802;37.404;2023-04-02T08:11:10;98992.44;;;11.67;100.00
24620;BME280;12763;55.802;37.404;2023-04-02T08:13:36;99000.88;;;11.72;100.00
24620;BME280;12763;55.802;37.404;2023-04-02T08:16:03;99005.41;;;11.55;100.00
24620;BME280;12763;55.802;37.404;2023-04-02T08:18:29;99004.28;;;11.45;100.00
24620;BME280;12763;55.802;37.404;2023-04-02T08:20:56;99006.56;;;11.36;100.00
24620;BME280;12763;55.802;37.404;2023-04-02T08:23:22;98999.66;;;11.15;100.00
24620;BME280;12763;55.802;37.404;2023-04-02T08:25:49;99008.38;;;11.42;100.00
24620;BME280;12763;55.802;37.404;2023-04-02T08:28:15;99002.97;;;11.47;100.00
24620;BME280;12763;55.802;37.404;2023-04-02T08:30:41;98992.91;;;11.64;100.00
24620;BME280;12763;55.802;37.404;2023-04-02T08:33:07;98999.22;;;11.30;100.00
24620;BME280;12763;55.802;37.404;2023-04-02T08:35:34;99000.72;;;11.56;100.00
24620;BME280;12763;55.802;37.404;2023-04-02T08:37:59;98997.81;;;11.51;100.00
24620;BME280;12763;55.802;37.404;2023-04-02T08:40:35;98993.50;;;11.55;100.00
24620;BME280;12763;55.802;37.404;2023-04-02T08:48:17;99001.50;;;11.86;100.00
24620;BME280;12763;55.802;37.404;2023-04-02T08:50:43;98996.81;;;11.87;100.00
24620;BME280;12763;55.802;37.404;2023-04-02T08:53:14;98990.59;;;11.50;100.00
24620;BME280;12763;55.802;37.404;2023-04-02T08:58:39;98996.69;;;11.29;100.00
24620;BME280;12763;55.802;37.404;2023-04-02T09:01:45;98975.59;;;11.57;100.00
24620;BME280;12763;55.802;37.404;2023-04-02T09:04:16;98995.28;;;11.49;100.00
24620;BME280;12763;55.802;37.404;2023-04-02T09:06:44;98988.59;;;11.68;100.00
24620;BME280;12763;55.802;37.404;2023-04-02T09:09:14;98993.50;;;11.66;100.00
24620;BME280;12763;55.802;37.404;2023-04-02T09:14:18;99002.88;;;11.65;100.00
24620;BME280;12763;55.802;37.404;2023-04-02T09:16:59;98992.91;;;11.64;100.00
24620;BME280;12763;55.802;37.404;2023-04-02T09:19:37;99000.78;;;11.79;100.00
24620;BME280;12763;55.802;37.404;2023-04-02T09:22:08;99004.84;;;11.88;100.00
24620;BME280;12763;55.802;37.404;2023-04-02T09:24:40;98999.09;;;11.78;100.00
24620;BME280;12763;55.802;37.404;2023-04-02T09:27:17;98996.94;;;12.03;100.00
24620;BME280;12763;55.802;37.404;2023-04-02T09:29:45;99010.50;;;12.05;100.00
24620;BME280;12763;55.802;37.404;2023-04-02T09:32:43;99007.84;;;12.33;100.00
24620;BME280;12763;55.802;37.404;2023-04-02T09:35:17;99003.16;;;12.10;100.00
24620;BME280;12763;55.802;37.404;2023-04-02T09:37:44;99013.63;;;12.20;100.00
24620;BME280;12763;55.802;37.404;2023-04-02T09:40:25;99002.03;;;12.46;99.61
24620;BME280;12763;55.802;37.404;2023-04-02T09:43:22;99000.41;;;11.99;100.00
24620;BME280;12763;55.802;37.404;2023-04-02T09:46:21;99009.66;;;11.69;100.00
24620;BME280;12763;55.802;37.404;2023-04-02T09:48:54;99017.50;;;11.96;100.00
24620;BME280;12763;55.802;37.404;2023-04-02T09:51:30;99009.91;;;12.14;100.00
24620;BME280;12763;55.802;37.404;2023-04-02T09:56:28;99009.19;;;11.72;100.00
24620;BME280;12763;55.802;37.404;2023-04-02T09:59:04;99020.28;;;11.54;100.00
24620;BME280;12763;55.802;37.404;2023-04-02T10:01:35;99015.06;;;11.88;100.00
24620;BME280;12763;55.802;37.404;2023-04-02T10:04:03;99014.97;;;12.17;100.00
24620;BME280;12763;55.802;37.404;2023-04-02T10:06:30;99005.56;;;12.07;100.00
24620;BME280;12763;55.802;37.404;2023-04-02T10:08:57;99011.34;;;11.82;100.00
24620;BME280;12763;55.802;37.404;2023-04-02T10:11:32;99014.44;;;12.32;100.00
24620;BME280;12763;55.802;37.404;2023-04-02T10:14:02;99015.28;;;12.56;100.00
24620;BME280;12763;55.802;37.404;2023-04-02T10:16:36;99014.44;;;12.44;100.00
24620;BME280;12763;55.802;37.404;2023-04-02T10:21:56;99016.03;;;12.40;100.00
24620;BME280;12763;55.802;37.404;2023-04-02T10:24:26;99009.72;;;12.67;99.68
24620;BME280;12763;55.802;37.404;2023-04-02T10:29:50;99013.28;;;12.79;98.54
24620;BME280;12763;55.802;37.404;2023-04-02T10:32:29;99012.19;;;12.80;98.43
24620;BME280;12763;55.802;37.404;2023-04-02T10:40:28;99007.38;;;13.44;94.26
24620;BME280;12763;55.802;37.404;2023-04-02T10:46:01;99006.09;;;14.35;89.77
24620;BME280;12763;55.802;37.404;2023-04-02T10:48:51;98997.81;;;13.85;89.66
24620;BME280;12763;55.802;37.404;2023-04-02T10:51:38;99006.28;;;13.78;90.45
24620;BME280;12763;55.802;37.404;2023-04-02T10:56:35;99006.88;;;13.97;89.97
24620;BME280;12763;55.802;37.404;2023-04-02T10:59:13;98997.50;;;14.20;89.66
24620;BME280;12763;55.802;37.404;2023-04-02T11:01:42;99004.13;;;13.80;89.74
24620;BME280;12763;55.802;37.404;2023-04-02T11:04:28;98997.72;;;13.96;88.36
24620;BME280;12763;55.802;37.404;2023-04-02T11:07:03;98991.94;;;14.20;87.59
24620;BME280;12763;55.802;37.404;2023-04-02T11:09:36;98989.28;;;14.41;85.57
24620;BME280;12763;55.802;37.404;2023-04-02T11:12:04;98995.47;;;14.92;84.35
24620;BME280;12763;55.802;37.404;2023-04-02T11:14:32;98996.28;;;14.92;82.46
24620;BME280;12763;55.802;37.404;2023-04-02T11:16:59;98997.50;;;15.23;80.33
24620;BME280;12763;55.802;37.404;2023-04-02T11:19:31;98996.44;;;16.66;74.45
24620;BME280;12763;55.802;37.404;2023-04-02T11:22:00;99005.34;;;17.45;70.17
24620;BME280;12763;55.802;37.404;2023-04-02T11:29:40;98998.88;;;15.74;75.42
24620;BME280;12763;55.802;37.404;2023-04-02T11:37:40;99005.69;;;14.09;82.72
24620;BME280;12763;55.802;37.404;2023-04-02T11:42:40;99022.53;;;13.25;89.72
24620;BME280;12763;55.802;37.404;2023-04-02T11:50:43;99010.72;;;13.46;89.09
24620;BME280;12763;55.802;37.404;2023-04-02T11:55:40;99004.69;;;13.66;88.14
24620;BME280;12763;55.802;37.404;2023-04-02T12:11:50;99009.72;;;15.00;80.68
24620;BME280;12763;55.802;37.404;2023-04-02T12:14:44;99001.22;;;15.34;79.19
24620;BME280;12763;55.802;37.404;2023-04-02T12:17:30;99004.22;;;15.54;77.31
24620;BME280;12763;55.802;37.404;2023-04-02T12:20:03;99006.97;;;16.12;75.66
24620;BME280;12763;55.802;37.404;2023-04-02T12:22:45;99004.53;;;16.21;73.04
24620;BME280;12763;55.802;37.404;2023-04-02T12:25:25;99024.91;;;15.95;74.67
24620;BME280;12763;55.802;37.404;2023-04-02T12:30:40;99023.13;;;14.60;80.83
24620;BME280;12763;55.802;37.404;2023-04-02T12:35:53;99033.50;;;13.81;85.71
24620;BME280;12763;55.802;37.404;2023-04-02T12:38:25;99037.41;;;13.80;86.03
24620;BME280;12763;55.802;37.404;2023-04-02T12:40:54;99036.56;;;13.80;85.89
24620;BME280;12763;55.802;37.404;2023-04-02T12:43:30;99034.53;;;13.75;86.36
24620;BME280;12763;55.802;37.404;2023-04-02T12:45:59;99017.69;;;13.48;86.25
24620;BME280;12763;55.802;37.404;2023-04-02T12:48:26;99032.75;;;13.52;87.56
24620;BME280;12763;55.802;37.404;2023-04-02T12:50:53;99042.31;;;13.17;89.49
24620;BME280;12763;55.802;37.404;2023-04-02T12:53:23;99039.47;;;13.12;90.41
24620;BME280;12763;55.802;37.404;2023-04-02T12:55:50;99042.94;;;12.95;91.36
24620;BME280;12763;55.802;37.404;2023-04-02T13:01:14;99037.63;;;13.62;88.57
24620;BME280;12763;55.802;37.404;2023-04-02T13:03:40;99035.31;;;13.42;88.46
24620;BME280;12763;55.802;37.404;2023-04-02T13:06:23;99038.00;;;13.37;89.27
24620;BME280;12763;55.802;37.404;2023-04-02T13:08:49;99037.34;;;13.47;88.95
24620;BME280;12763;55.802;37.404;2023-04-02T13:11:15;99035.19;;;13.66;87.45
24620;BME280;12763;55.802;37.404;2023-04-02T13:13:43;99033.84;;;13.68;87.67
24620;BME280;12763;55.802;37.404;2023-04-02T13:18:44;99043.78;;;13.64;88.04
24620;BME280;12763;55.802;37.404;2023-04-02T13:23:39;99040.38;;;13.62;87.60
24620;BME280;12763;55.802;37.404;2023-04-02T13:28:33;99029.34;;;13.50;87.56
24620;BME280;12763;55.802;37.404;2023-04-02T13:30:59;99031.75;;;13.59;87.00
24620;BME280;12763;55.802;37.404;2023-04-02T13:33:25;99027.31;;;13.74;86.59
24620;BME280;12763;55.802;37.404;2023-04-02T13:35:51;99031.44;;;13.88;86.13
24620;BME280;12763;55.802;37.404;2023-04-02T13:38:16;99022.75;;;14.01;85.42
24620;BME280;12763;55.802;37.404;2023-04-02T13:40:42;99017.03;;;14.25;84.34
24620;BME280;12763;55.802;37.404;2023-04-02T13:43:16;99011.09;;;14.54;82.94
24620;BME280;12763;55.802;37.404;2023-04-02T13:45:44;99022.53;;;14.58;82.41
24620;BME280;12763;55.802;37.404;2023-04-02T13:48:13;99024.13;;;14.54;82.24
24620;BME280;12763;55.802;37.404;2023-04-02T13:50:39;99021.19;;;14.60;81.89
24620;BME280;12763;55.802;37.404;2023-04-02T13:53:07;99014.63;;;14.50;82.41
24620;BME280;12763;55.802;37.404;2023-04-02T13:55:38;99020.84;;;14.57;82.42
24620;BME280;12763;55.802;37.404;2023-04-02T13:58:06;99016.88;;;14.53;81.97
24620;BME280;12763;55.802;37.404;2023-04-02T14:00:35;99012.91;;;14.44;82.71
24620;BME280;12763;55.802;37.404;2023-04-02T14:03:07;99016.44;;;14.61;82.34
24620;BME280;12763;55.802;37.404;2023-04-02T14:32:48;99017.34;;;14.45;81.49
24620;BME280;12763;55.802;37.404;2023-04-02T14:35:26;99012.63;;;14.45;81.92
24620;BME280;12763;55.802;37.404;2023-04-02T14:38:13;99018.84;;;14.52;81.74
24620;BME280;12763;55.802;37.404;2023-04-02T14:40:56;99017.25;;;14.40;82.06
24620;BME280;12763;55.802;37.404;2023-04-02T14:43:34;99017.59;;;14.43;82.12
24620;BME280;12763;55.802;37.404;2023-04-02T14:46:07;99012.28;;;14.42;82.53
24620;BME280;12763;55.802;37.404;2023-04-02T14:51:38;99013.84;;;14.33;82.88
24620;BME280;12763;55.802;37.404;2023-04-02T14:54:08;99020.41;;;14.10;83.59
24620;BME280;12763;55.802;37.404;2023-04-02T14:56:46;99028.81;;;14.32;83.17
24620;BME280;12763;55.802;37.404;2023-04-02T15:01:48;99025.59;;;14.40;82.43
24620;BME280;12763;55.802;37.404;2023-04-02T15:06:48;99024.56;;;14.46;82.24
24620;BME280;12763;55.802;37.404;2023-04-02T15:09:24;99024.91;;;14.49;82.14
24620;BME280;12763;55.802;37.404;2023-04-02T15:12:34;99026.09;;;14.37;82.33
24620;BME280;12763;55.802;37.404;2023-04-02T15:15:13;99020.56;;;14.37;82.68
24620;BME280;12763;55.802;37.404;2023-04-02T15:17:41;99026.28;;;14.30;82.86
24620;BME280;12763;55.802;37.404;2023-04-02T15:20:17;99028.81;;;14.32;83.19
24620;BME280;12763;55.802;37.404;2023-04-02T15:23:02;99024.31;;;14.31;82.92
24620;BME280;12763;55.802;37.404;2023-04-02T15:25:37;99026.44;;;14.24;83.36
24620;BME280;12763;55.802;37.404;2023-04-02T15:30:42;99025.44;;;14.13;84.00
24620;BME280;12763;55.802;37.404;2023-04-02T15:36:24;99030.50;;;14.16;83.89
24620;BME280;12763;55.802;37.404;2023-04-02T15:38:58;99032.16;;;14.00;84.16
24620;BME280;12763;55.802;37.404;2023-04-02T15:41:31;99036.97;;;13.88;84.98
24620;BME280;12763;55.802;37.404;2023-04-02T15:44:15;99034.78;;;13.90;85.16
24620;BME280;12763;55.802;37.404;2023-04-02T15:49:41;99040.91;;;13.76;85.80
24620;BME280;12763;55.802;37.404;2023-04-02T15:55:35;99053.63;;;13.88;85.15
24620;BME280;12763;55.802;37.404;2023-04-02T16:03:30;99056.38;;;13.88;85.98
24620;BME280;12763;55.802;37.404;2023-04-02T16:11:37;99069.13;;;13.73;87.02
24620;BME280;12763;55.802;37.404;2023-04-02T16:14:30;99071.84;;;14.01;86.85
24620;BME280;12763;55.802;37.404;2023-04-02T16:17:01;99068.84;;;14.02;86.89
24620;BME280;12763;55.802;37.404;2023-04-02T16:19:33;99074.69;;;13.89;87.87
24620;BME280;12763;55.802;37.404;2023-04-02T16:24:30;99080.25;;;13.89;88.24
24620;BME280;12763;55.802;37.404;2023-04-02T16:34:55;99085.38;;;13.97;91.59
24620;BME280;12763;55.802;37.404;2023-04-02T16:37:40;99098.41;;;13.97;91.29
24620;BME280;12763;55.802;37.404;2023-04-02T16:53:56;99106.31;;;13.88;93.53
24620;BME280;12763;55.802;37.404;2023-04-02T17:14:29;99105.25;;;13.61;97.46
24620;BME280;12763;55.802;37.404;2023-04-02T17:17:03;99113.13;;;13.52;97.72
24620;BME280;12763;55.802;37.404;2023-04-02T17:19:30;99112.38;;;13.57;96.99
24620;BME280;12763;55.802;37.404;2023-04-02T17:22:01;99115.63;;;13.54;97.23
24620;BME280;12763;55.802;37.404;2023-04-02T17:27:19;99115.84;;;13.64;96.96
24620;BME280;12763;55.802;37.404;2023-04-02T17:29:50;99108.25;;;13.60;96.62
24620;BME280;12763;55.802;37.404;2023-04-02T17:32:28;99121.03;;;13.61;96.50